sensor_id;sensor_type;location;lat;lon;timestamp;P1;durP1;ratioP1;P2;durP2;ratioP2
3769;SDS011;1900;48.890;9.190;2023-03-01T00:00:40;22.87;;;13.30;;
3769;SDS011;1900;48.890;9.190;2023-03-01T00:03:06;17.87;;;11.80;;
3769;SDS011;1900;48.890;9.190;2023-03-01T00:05:31;20.20;;;12.83;;
3769;SDS011;1900;48.890;9.190;2023-03-01T00:07:57;20.03;;;11.80;;
3769;SDS011;1900;48.890;9.190;2023-03-01T00:10:23;23.00;;;12.30;;
3769;SDS011;1900;48.890;9.190;2023-03-01T00:12:49;17.80;;;12.50;;
3769;SDS011;1900;48.890;9.190;2023-03-01T00:15:15;17.53;;;11.33;;
3769;SDS011;1900;48.890;9.190;2023-03-01T00:17:40;21.37;;;12.27;;
3769;SDS011;1900;48.890;9.190;2023-03-01T00:20:06;20.03;;;11.33;;
3769;SDS011;1900;48.890;9.190;2023-03-01T00:22:35;19.77;;;12.40;;
3769;SDS011;1900;48.890;9.190;2023-03-01T00:25:01;21.13;;;12.40;;
3769;SDS011;1900;48.890;9.190;2023-03-01T00:27:27;22.30;;;12.43;;
3769;SDS011;1900;48.890;9.190;2023-03-01T00:29:52;24.93;;;14.40;;
3769;SDS011;1900;48.890;9.190;2023-03-01T00:32:18;18.63;;;12.60;;
3769;SDS011;1900;48.890;9.190;2023-03-01T00:34:44;19.37;;;11.70;;
3769;SDS011;1900;48.890;9.190;2023-03-01T00:37:22;25.60;;;13.57;;
3769;SDS011;1900;48.890;9.190;2023-03-01T00:39:48;25.10;;;13.60;;
3769;SDS011;1900;48.890;9.190;2023-03-01T00:42:15;19.00;;;13.13;;
3769;SDS011;1900;48.890;9.190;2023-03-01T00:44:41;19.20;;;12.47;;
3769;SDS011;1900;48.890;9.190;2023-03-01T00:47:07;20.13;;;12.90;;
3769;SDS011;1900;48.890;9.190;2023-03-01T00:49:32;27.17;;;14.10;;
3769;SDS011;1900;48.890;9.190;2023-03-01T00:51:58;23.60;;;12.67;;
3769;SDS011;1900;48.890;9.190;2023-03-01T00:54:24;20.80;;;13.20;;
3769;SDS011;1900;48.890;9.190;2023-03-01T00:56:50;22.00;;;12.87;;
3769;SDS011;1900;48.890;9.190;2023-03-01T00:59:15;21.63;;;13.90;;
3769;SDS011;1900;48.890;9.190;2023-03-01T01:01:41;18.30;;;12.17;;
3769;SDS011;1900;48.890;9.190;2023-03-01T01:04:08;23.03;;;13.53;;
3769;SDS011;1900;48.890;9.190;2023-03-01T01:06:37;21.60;;;11.80;;
3769;SDS011;1900;48.890;9.190;2023-03-01T01:09:08;18.97;;;12.97;;
3769;SDS011;1900;48.890;9.190;2023-03-01T01:11:42;19.20;;;11.97;;
3769;SDS011;1900;48.890;9.190;2023-03-01T01:14:12;23.53;;;13.67;;
3769;SDS011;1900;48.890;9.190;2023-03-01T01:16:38;19.17;;;12.60;;
3769;SDS011;1900;48.890;9.190;2023-03-01T01:19:04;25.13;;;14.03;;
3769;SDS011;1900;48.890;9.190;2023-03-01T01:21:30;23.47;;;12.30;;
3769;SDS011;1900;48.890;9.190;2023-03-01T01:23:56;20.57;;;12.30;;
3769;SDS011;1900;48.890;9.190;2023-03-01T01:26:23;19.07;;;12.60;;
3769;SDS011;1900;48.890;9.190;2023-03-01T01:28:52;21.17;;;12.93;;
3769;SDS011;1900;48.890;9.190;2023-03-01T01:31:18;21.10;;;12.80;;
3769;SDS011;1900;48.890;9.190;2023-03-01T01:33:44;23.13;;;13.67;;
3769;SDS011;1900;48.890;9.190;2023-03-01T01:36:11;22.77;;;12.80;;
3769;SDS011;1900;48.890;9.190;2023-03-01T01:38:37;16.73;;;12.40;;
3769;SDS011;1900;48.890;9.190;2023-03-01T01:41:03;21.83;;;12.60;;
3769;SDS011;1900;48.890;9.190;2023-03-01T01:43:34;28.47;;;14.30;;
3769;SDS011;1900;48.890;9.190;2023-03-01T01:46:03;20.33;;;12.50;;
3769;SDS011;1900;48.890;9.190;2023-03-01T01:48:34;24.30;;;13.40;;
3769;SDS011;1900;48.890;9.190;2023-03-01T01:51:06;20.03;;;12.80;;
3769;SDS011;1900;48.890;9.190;2023-03-01T01:53:36;22.70;;;12.80;;
3769;SDS011;1900;48.890;9.190;2023-03-01T01:56:03;22.90;;;12.90;;
3769;SDS011;1900;48.890;9.190;2023-03-01T01:58:33;28.90;;;13.70;;
3769;SDS011;1900;48.890;9.190;2023-03-01T02:01:00;19.93;;;12.20;;
3769;SDS011;1900;48.890;9.190;2023-03-01T02:03:29;22.50;;;13.40;;
3769;SDS011;1900;48.890;9.190;2023-03-01T02:06:06;20.97;;;12.70;;
3769;SDS011;1900;48.890;9.190;2023-03-01T02:08:33;18.70;;;12.20;;
3769;SDS011;1900;48.890;9.190;2023-03-01T02:11:02;19.53;;;12.40;;
3769;SDS011;1900;48.890;9.190;2023-03-01T02:13:30;24.37;;;12.63;;
3769;SDS011;1900;48.890;9.190;2023-03-01T02:15:57;22.87;;;13.30;;
3769;SDS011;1900;48.890;9.190;2023-03-01T02:18:23;23.80;;;12.40;;
3769;SDS011;1900;48.890;9.190;2023-03-01T02:23:58;22.87;;;12.77;;
3769;SDS011;1900;48.890;9.190;2023-03-01T02:26:29;22.23;;;12.00;;
3769;SDS011;1900;48.890;9.190;2023-03-01T02:29:05;27.93;;;13.13;;
3769;SDS011;1900;48.890;9.190;2023-03-01T02:31:31;22.60;;;13.73;;
3769;SDS011;1900;48.890;9.190;2023-03-01T02:34:12;20.93;;;13.37;;
3769;SDS011;1900;48.890;9.190;2023-03-01T02:39:20;20.00;;;14.03;;
3769;SDS011;1900;48.890;9.190;2023-03-01T02:41:50;20.07;;;13.50;;
3769;SDS011;1900;48.890;9.190;2023-03-01T02:44:18;22.97;;;14.40;;
3769;SDS011;1900;48.890;9.190;2023-03-01T02:46:45;21.90;;;13.87;;
3769;SDS011;1900;48.890;9.190;2023-03-01T02:49:20;20.07;;;13.53;;
3769;SDS011;1900;48.890;9.190;2023-03-01T02:54:52;22.17;;;13.00;;
3769;SDS011;1900;48.890;9.190;2023-03-01T02:57:38;24.47;;;14.87;;
3769;SDS011;1900;48.890;9.190;2023-03-01T03:00:08;23.73;;;13.63;;
3769;SDS011;1900;48.890;9.190;2023-03-01T03:02:44;20.63;;;13.57;;
3769;SDS011;1900;48.890;9.190;2023-03-01T03:07:44;22.33;;;13.87;;
3769;SDS011;1900;48.890;9.190;2023-03-01T03:10:13;22.40;;;13.67;;
3769;SDS011;1900;48.890;9.190;2023-03-01T03:12:41;23.10;;;13.43;;
3769;SDS011;1900;48.890;9.190;2023-03-01T03:15:08;28.70;;;13.53;;
3769;SDS011;1900;48.890;9.190;2023-03-01T03:17:38;22.00;;;14.17;;
3769;SDS011;1900;48.890;9.190;2023-03-01T03:20:06;23.63;;;14.00;;
3769;SDS011;1900;48.890;9.190;2023-03-01T03:22:36;24.17;;;14.50;;
3769;SDS011;1900;48.890;9.190;2023-03-01T03:25:04;23.50;;;13.97;;
3769;SDS011;1900;48.890;9.190;2023-03-01T03:27:35;20.97;;;13.27;;
3769;SDS011;1900;48.890;9.190;2023-03-01T03:30:03;32.50;;;13.63;;
3769;SDS011;1900;48.890;9.190;2023-03-01T03:32:34;21.33;;;12.70;;
3769;SDS011;1900;48.890;9.190;2023-03-01T03:35:01;26.60;;;14.27;;
3769;SDS011;1900;48.890;9.190;2023-03-01T03:37:33;23.10;;;14.40;;
3769;SDS011;1900;48.890;9.190;2023-03-01T03:40:18;24.80;;;13.87;;
3769;SDS011;1900;48.890;9.190;2023-03-01T03:42:43;24.77;;;15.30;;
3769;SDS011;1900;48.890;9.190;2023-03-01T03:45:09;27.40;;;13.93;;
3769;SDS011;1900;48.890;9.190;2023-03-01T03:47:35;23.83;;;14.13;;
3769;SDS011;1900;48.890;9.190;2023-03-01T03:50:00;24.17;;;13.40;;
3769;SDS011;1900;48.890;9.190;2023-03-01T03:52:26;20.60;;;13.80;;
3769;SDS011;1900;48.890;9.190;2023-03-01T03:54:51;24.63;;;14.67;;
3769;SDS011;1900;48.890;9.190;2023-03-01T03:57:17;20.63;;;13.20;;
3769;SDS011;1900;48.890;9.190;2023-03-01T03:59:43;22.30;;;13.23;;
3769;SDS011;1900;48.890;9.190;2023-03-01T04:02:08;24.30;;;14.40;;
3769;SDS011;1900;48.890;9.190;2023-03-01T04:04:36;21.93;;;13.20;;
3769;SDS011;1900;48.890;9.190;2023-03-01T04:07:02;21.73;;;13.40;;
3769;SDS011;1900;48.890;9.190;2023-03-01T04:09:28;24.83;;;13.27;;
3769;SDS011;1900;48.890;9.190;2023-03-01T04:11:55;21.33;;;13.23;;
3769;SDS011;1900;48.890;9.190;2023-03-01T04:14:21;24.10;;;12.87;;
3769;SDS011;1900;48.890;9.190;2023-03-01T04:16:46;25.30;;;14.80;;
3769;SDS011;1900;48.890;9.190;2023-03-01T04:19:12;26.97;;;14.03;;
3769;SDS011;1900;48.890;9.190;2023-03-01T04:21:40;22.80;;;13.70;;
3769;SDS011;1900;48.890;9.190;2023-03-01T04:24:05;23.40;;;13.07;;
3769;SDS011;1900;48.890;9.190;2023-03-01T04:26:31;23.73;;;14.73;;
3769;SDS011;1900;48.890;9.190;2023-03-01T04:28:57;23.00;;;13.47;;
3769;SDS011;1900;48.890;9.190;2023-03-01T04:31:23;22.80;;;13.50;;
3769;SDS011;1900;48.890;9.190;2023-03-01T04:33:49;19.50;;;13.27;;
3769;SDS011;1900;48.890;9.190;2023-03-01T04:36:17;20.33;;;13.23;;
3769;SDS011;1900;48.890;9.190;2023-03-01T04:38:44;20.93;;;13.30;;
3769;SDS011;1900;48.890;9.190;2023-03-01T04:41:13;24.17;;;13.73;;
3769;SDS011;1900;48.890;9.190;2023-03-01T04:43:40;27.10;;;14.43;;
3769;SDS011;1900;48.890;9.190;2023-03-01T04:46:07;22.00;;;13.63;;
3769;SDS011;1900;48.890;9.190;2023-03-01T04:48:36;26.60;;;14.00;;
3769;SDS011;1900;48.890;9.190;2023-03-01T04:51:03;22.40;;;13.80;;
3769;SDS011;1900;48.890;9.190;2023-03-01T04:53:30;21.47;;;13.30;;
3769;SDS011;1900;48.890;9.190;2023-03-01T04:55:57;22.93;;;13.87;;
3769;SDS011;1900;48.890;9.190;2023-03-01T04:58:24;22.27;;;13.70;;
3769;SDS011;1900;48.890;9.190;2023-03-01T05:00:51;22.90;;;13.90;;
3769;SDS011;1900;48.890;9.190;2023-03-01T05:03:18;34.40;;;14.57;;
3769;SDS011;1900;48.890;9.190;2023-03-01T05:05:44;22.40;;;14.00;;
3769;SDS011;1900;48.890;9.190;2023-03-01T05:08:12;23.17;;;15.03;;
3769;SDS011;1900;48.890;9.190;2023-03-01T05:10:43;22.00;;;14.23;;
3769;SDS011;1900;48.890;9.190;2023-03-01T05:13:11;23.40;;;13.37;;
3769;SDS011;1900;48.890;9.190;2023-03-01T05:15:38;20.30;;;13.30;;
3769;SDS011;1900;48.890;9.190;2023-03-01T05:18:04;21.97;;;14.57;;
3769;SDS011;1900;48.890;9.190;2023-03-01T05:20:36;23.00;;;13.97;;
3769;SDS011;1900;48.890;9.190;2023-03-01T05:23:03;23.73;;;14.50;;
3769;SDS011;1900;48.890;9.190;2023-03-01T05:25:30;26.70;;;15.27;;
3769;SDS011;1900;48.890;9.190;2023-03-01T05:28:02;25.43;;;14.47;;
3769;SDS011;1900;48.890;9.190;2023-03-01T05:30:33;25.57;;;14.80;;
3769;SDS011;1900;48.890;9.190;2023-03-01T05:32:59;25.60;;;15.70;;
3769;SDS011;1900;48.890;9.190;2023-03-01T05:35:25;22.70;;;14.40;;
3769;SDS011;1900;48.890;9.190;2023-03-01T05:37:51;21.40;;;13.70;;
3769;SDS011;1900;48.890;9.190;2023-03-01T05:40:21;21.90;;;14.40;;
3769;SDS011;1900;48.890;9.190;2023-03-01T05:42:50;23.57;;;14.47;;
3769;SDS011;1900;48.890;9.190;2023-03-01T05:45:19;20.00;;;13.03;;
3769;SDS011;1900;48.890;9.190;2023-03-01T05:47:46;27.67;;;14.23;;
3769;SDS011;1900;48.890;9.190;2023-03-01T05:50:16;20.70;;;13.47;;
3769;SDS011;1900;48.890;9.190;2023-03-01T05:52:58;24.90;;;13.87;;
3769;SDS011;1900;48.890;9.190;2023-03-01T05:55:30;22.97;;;14.90;;
3769;SDS011;1900;48.890;9.190;2023-03-01T05:58:04;25.83;;;14.60;;
3769;SDS011;1900;48.890;9.190;2023-03-01T06:00:31;23.17;;;14.03;;
3769;SDS011;1900;48.890;9.190;2023-03-01T06:02:58;27.23;;;16.27;;
3769;SDS011;1900;48.890;9.190;2023-03-01T06:05:25;21.00;;;12.97;;
3769;SDS011;1900;48.890;9.190;2023-03-01T06:07:51;29.00;;;14.90;;
3769;SDS011;1900;48.890;9.190;2023-03-01T06:10:18;29.00;;;15.60;;
3769;SDS011;1900;48.890;9.190;2023-03-01T06:12:45;24.80;;;14.40;;
3769;SDS011;1900;48.890;9.190;2023-03-01T06:15:11;23.00;;;14.20;;
3769;SDS011;1900;48.890;9.190;2023-03-01T06:17:40;24.90;;;15.17;;
3769;SDS011;1900;48.890;9.190;2023-03-01T06:20:08;24.77;;;15.50;;
3769;SDS011;1900;48.890;9.190;2023-03-01T06:22:36;26.50;;;15.30;;
3769;SDS011;1900;48.890;9.190;2023-03-01T06:25:03;24.53;;;14.80;;
3769;SDS011;1900;48.890;9.190;2023-03-01T06:27:29;23.67;;;14.87;;
3769;SDS011;1900;48.890;9.190;2023-03-01T06:29:54;24.27;;;16.33;;
3769;SDS011;1900;48.890;9.190;2023-03-01T06:32:20;28.47;;;14.27;;
3769;SDS011;1900;48.890;9.190;2023-03-01T06:34:46;29.50;;;15.80;;
3769;SDS011;1900;48.890;9.190;2023-03-01T06:37:11;20.97;;;13.67;;
3769;SDS011;1900;48.890;9.190;2023-03-01T06:39:37;25.43;;;15.53;;
3769;SDS011;1900;48.890;9.190;2023-03-01T06:42:04;24.17;;;15.40;;
3769;SDS011;1900;48.890;9.190;2023-03-01T06:44:30;22.80;;;14.13;;
3769;SDS011;1900;48.890;9.190;2023-03-01T06:46:56;24.77;;;14.40;;
3769;SDS011;1900;48.890;9.190;2023-03-01T06:49:21;26.00;;;16.97;;
3769;SDS011;1900;48.890;9.190;2023-03-01T06:51:47;28.47;;;15.00;;
3769;SDS011;1900;48.890;9.190;2023-03-01T06:54:13;22.13;;;15.10;;
3769;SDS011;1900;48.890;9.190;2023-03-01T06:56:38;26.80;;;15.63;;
3769;SDS011;1900;48.890;9.190;2023-03-01T06:59:04;24.73;;;15.40;;
3769;SDS011;1900;48.890;9.190;2023-03-01T07:01:30;25.97;;;15.77;;
3769;SDS011;1900;48.890;9.190;2023-03-01T07:03:56;30.13;;;15.87;;
3769;SDS011;1900;48.890;9.190;2023-03-01T07:06:22;30.63;;;15.47;;
3769;SDS011;1900;48.890;9.190;2023-03-01T07:08:48;26.60;;;15.60;;
3769;SDS011;1900;48.890;9.190;2023-03-01T07:11:13;25.33;;;14.67;;
3769;SDS011;1900;48.890;9.190;2023-03-01T07:13:39;28.30;;;14.80;;
3769;SDS011;1900;48.890;9.190;2023-03-01T07:16:05;24.67;;;13.83;;
3769;SDS011;1900;48.890;9.190;2023-03-01T07:18:32;28.20;;;14.57;;
3769;SDS011;1900;48.890;9.190;2023-03-01T07:20:57;28.43;;;15.10;;
3769;SDS011;1900;48.890;9.190;2023-03-01T07:23:23;21.50;;;15.13;;
3769;SDS011;1900;48.890;9.190;2023-03-01T07:25:52;26.63;;;16.27;;
3769;SDS011;1900;48.890;9.190;2023-03-01T07:28:18;30.37;;;15.10;;
3769;SDS011;1900;48.890;9.190;2023-03-01T07:30:48;23.03;;;15.30;;
3769;SDS011;1900;48.890;9.190;2023-03-01T07:33:13;26.10;;;15.70;;
3769;SDS011;1900;48.890;9.190;2023-03-01T07:35:39;26.57;;;15.90;;
3769;SDS011;1900;48.890;9.190;2023-03-01T07:38:05;25.07;;;15.63;;
3769;SDS011;1900;48.890;9.190;2023-03-01T07:40:31;30.37;;;17.03;;
3769;SDS011;1900;48.890;9.190;2023-03-01T07:42:57;26.70;;;15.43;;
3769;SDS011;1900;48.890;9.190;2023-03-01T07:45:23;29.13;;;16.70;;
3769;SDS011;1900;48.890;9.190;2023-03-01T07:47:50;28.73;;;16.40;;
3769;SDS011;1900;48.890;9.190;2023-03-01T07:50:16;32.10;;;16.07;;
3769;SDS011;1900;48.890;9.190;2023-03-01T07:52:44;29.10;;;16.70;;
3769;SDS011;1900;48.890;9.190;2023-03-01T07:55:11;26.00;;;14.40;;
3769;SDS011;1900;48.890;9.190;2023-03-01T07:57:37;26.60;;;15.67;;
3769;SDS011;1900;48.890;9.190;2023-03-01T08:00:04;27.07;;;16.13;;
3769;SDS011;1900;48.890;9.190;2023-03-01T08:02:37;25.53;;;16.23;;
3769;SDS011;1900;48.890;9.190;2023-03-01T08:05:03;24.50;;;14.83;;
3769;SDS011;1900;48.890;9.190;2023-03-01T08:07:28;30.43;;;16.67;;
3769;SDS011;1900;48.890;9.190;2023-03-01T08:09:54;31.40;;;16.80;;
3769;SDS011;1900;48.890;9.190;2023-03-01T08:12:20;27.53;;;16.50;;
3769;SDS011;1900;48.890;9.190;2023-03-01T08:14:45;27.47;;;15.60;;
3769;SDS011;1900;48.890;9.190;2023-03-01T08:17:13;29.53;;;17.60;;
3769;SDS011;1900;48.890;9.190;2023-03-01T08:19:39;25.43;;;15.90;;
3769;SDS011;1900;48.890;9.190;2023-03-01T08:22:05;27.03;;;15.80;;
3769;SDS011;1900;48.890;9.190;2023-03-01T08:24:30;28.90;;;16.70;;
3769;SDS011;1900;48.890;9.190;2023-03-01T08:26:56;23.70;;;13.50;;
3769;SDS011;1900;48.890;9.190;2023-03-01T08:29:22;25.07;;;13.87;;
3769;SDS011;1900;48.890;9.190;2023-03-01T08:31:49;27.30;;;14.90;;
3769;SDS011;1900;48.890;9.190;2023-03-01T08:34:16;32.60;;;15.93;;
3769;SDS011;1900;48.890;9.190;2023-03-01T08:36:44;29.83;;;15.87;;
3769;SDS011;1900;48.890;9.190;2023-03-01T08:39:12;23.50;;;15.23;;
3769;SDS011;1900;48.890;9.190;2023-03-01T08:41:40;28.40;;;16.43;;
3769;SDS011;1900;48.890;9.190;2023-03-01T08:44:06;32.17;;;19.07;;
3769;SDS011;1900;48.890;9.190;2023-03-01T08:46:37;35.00;;;17.10;;
3769;SDS011;1900;48.890;9.190;2023-03-01T08:49:06;31.03;;;17.83;;
3769;SDS011;1900;48.890;9.190;2023-03-01T08:51:33;27.93;;;17.00;;
3769;SDS011;1900;48.890;9.190;2023-03-01T08:54:05;33.00;;;17.37;;
3769;SDS011;1900;48.890;9.190;2023-03-01T08:56:33;28.60;;;16.63;;
3769;SDS011;1900;48.890;9.190;2023-03-01T08:58:58;29.77;;;16.33;;
3769;SDS011;1900;48.890;9.190;2023-03-01T09:01:25;30.53;;;17.80;;
3769;SDS011;1900;48.890;9.190;2023-03-01T09:03:50;33.90;;;17.90;;
3769;SDS011;1900;48.890;9.190;2023-03-01T09:06:16;33.83;;;17.70;;
3769;SDS011;1900;48.890;9.190;2023-03-01T09:08:43;29.13;;;15.30;;
3769;SDS011;1900;48.890;9.190;2023-03-01T09:11:12;30.70;;;17.50;;
3769;SDS011;1900;48.890;9.190;2023-03-01T09:13:40;31.50;;;19.07;;
3769;SDS011;1900;48.890;9.190;2023-03-01T09:16:06;26.90;;;17.67;;
3769;SDS011;1900;48.890;9.190;2023-03-01T09:18:33;29.67;;;19.00;;
3769;SDS011;1900;48.890;9.190;2023-03-01T09:21:01;36.30;;;19.50;;
3769;SDS011;1900;48.890;9.190;2023-03-01T09:23:35;38.10;;;17.70;;
3769;SDS011;1900;48.890;9.190;2023-03-01T09:26:02;32.43;;;17.37;;
3769;SDS011;1900;48.890;9.190;2023-03-01T09:28:28;28.03;;;16.03;;
3769;SDS011;1900;48.890;9.190;2023-03-01T09:30:57;23.50;;;15.70;;
3769;SDS011;1900;48.890;9.190;2023-03-01T09:33:23;28.63;;;16.63;;
3769;SDS011;1900;48.890;9.190;2023-03-01T09:35:49;26.53;;;16.53;;
3769;SDS011;1900;48.890;9.190;2023-03-01T09:38:15;30.67;;;16.53;;
3769;SDS011;1900;48.890;9.190;2023-03-01T09:40:44;29.87;;;16.70;;
3769;SDS011;1900;48.890;9.190;2023-03-01T09:45:55;28.80;;;16.10;;
3769;SDS011;1900;48.890;9.190;2023-03-01T09:48:26;23.97;;;15.50;;
3769;SDS011;1900;48.890;9.190;2023-03-01T09:50:55;24.70;;;16.07;;
3769;SDS011;1900;48.890;9.190;2023-03-01T09:53:23;29.27;;;17.47;;
3769;SDS011;1900;48.890;9.190;2023-03-01T09:55:59;29.33;;;16.53;;
3769;SDS011;1900;48.890;9.190;2023-03-01T10:01:27;32.30;;;18.30;;
3769;SDS011;1900;48.890;9.190;2023-03-01T10:06:42;36.80;;;19.17;;
3769;SDS011;1900;48.890;9.190;2023-03-01T10:09:16;29.17;;;18.37;;
3769;SDS011;1900;48.890;9.190;2023-03-01T10:11:44;24.73;;;15.07;;
3769;SDS011;1900;48.890;9.190;2023-03-01T10:14:26;29.07;;;17.43;;
3769;SDS011;1900;48.890;9.190;2023-03-01T10:19:31;27.40;;;17.10;;
3769;SDS011;1900;48.890;9.190;2023-03-01T10:24:49;28.07;;;16.23;;
3769;SDS011;1900;48.890;9.190;2023-03-01T10:27:23;20.30;;;14.07;;
3769;SDS011;1900;48.890;9.190;2023-03-01T10:32:56;34.70;;;17.53;;
3769;SDS011;1900;48.890;9.190;2023-03-01T10:35:24;23.30;;;15.50;;
3769;SDS011;1900;48.890;9.190;2023-03-01T10:38:02;27.37;;;17.47;;
3769;SDS011;1900;48.890;9.190;2023-03-01T10:40:31;28.53;;;16.40;;
3769;SDS011;1900;48.890;9.190;2023-03-01T10:42:58;23.10;;;15.70;;
3769;SDS011;1900;48.890;9.190;2023-03-01T10:45:37;24.43;;;16.83;;
3769;SDS011;1900;48.890;9.190;2023-03-01T10:48:05;29.13;;;18.20;;
3769;SDS011;1900;48.890;9.190;2023-03-01T10:50:34;25.73;;;15.90;;
3769;SDS011;1900;48.890;9.190;2023-03-01T10:53:02;27.50;;;16.60;;
3769;SDS011;1900;48.890;9.190;2023-03-01T10:55:36;22.80;;;16.20;;
3769;SDS011;1900;48.890;9.190;2023-03-01T10:58:19;29.00;;;16.33;;
3769;SDS011;1900;48.890;9.190;2023-03-01T11:03:24;24.23;;;16.47;;
3769;SDS011;1900;48.890;9.190;2023-03-01T11:05:57;27.40;;;16.33;;
3769;SDS011;1900;48.890;9.190;2023-03-01T11:11:05;26.37;;;15.97;;
3769;SDS011;1900;48.890;9.190;2023-03-01T11:16:28;27.23;;;15.60;;
3769;SDS011;1900;48.890;9.190;2023-03-01T11:21:45;23.53;;;15.93;;
3769;SDS011;1900;48.890;9.190;2023-03-01T11:24:18;29.07;;;17.37;;
3769;SDS011;1900;48.890;9.190;2023-03-01T11:26:47;26.10;;;15.93;;
3769;SDS011;1900;48.890;9.190;2023-03-01T11:29:26;24.40;;;15.87;;
3769;SDS011;1900;48.890;9.190;2023-03-01T11:32:03;28.27;;;15.70;;
3769;SDS011;1900;48.890;9.190;2023-03-01T11:34:49;24.53;;;16.83;;
3769;SDS011;1900;48.890;9.190;2023-03-01T11:45:10;29.73;;;17.10;;
3769;SDS011;1900;48.890;9.190;2023-03-01T11:53:32;32.73;;;17.23;;
3769;SDS011;1900;48.890;9.190;2023-03-01T12:10:15;25.43;;;16.00;;
3769;SDS011;1900;48.890;9.190;2023-03-01T12:18:15;23.97;;;15.87;;
3769;SDS011;1900;48.890;9.190;2023-03-01T12:29:07;24.20;;;16.33;;
3769;SDS011;1900;48.890;9.190;2023-03-01T12:48:53;24.17;;;16.50;;
3769;SDS011;1900;48.890;9.190;2023-03-01T12:51:30;22.73;;;15.60;;
3769;SDS011;1900;48.890;9.190;2023-03-01T12:54:00;23.10;;;14.20;;
3769;SDS011;1900;48.890;9.190;2023-03-01T12:56:36;27.53;;;16.40;;
3769;SDS011;1900;48.890;9.190;2023-03-01T12:59:23;24.00;;;14.57;;
3769;SDS011;1900;48.890;9.190;2023-03-01T13:07:39;24.23;;;15.77;;
3769;SDS011;1900;48.890;9.190;2023-03-01T13:15:37;25.83;;;16.30;;
3769;SDS011;1900;48.890;9.190;2023-03-01T13:20:48;24.13;;;15.20;;
3769;SDS011;1900;48.890;9.190;2023-03-01T13:33:41;26.70;;;16.23;;
3769;SDS011;1900;48.890;9.190;2023-03-01T13:37:02;21.53;;;15.03;;
3769;SDS011;1900;48.890;9.190;2023-03-01T13:39:03;23.20;;;15.77;;
3769;SDS011;1900;48.890;9.190;2023-03-01T13:41:52;21.23;;;15.43;;
3769;SDS011;1900;48.890;9.190;2023-03-01T13:44:35;28.50;;;16.40;;
3769;SDS011;1900;48.890;9.190;2023-03-01T13:49:41;21.97;;;16.00;;
3769;SDS011;1900;48.890;9.190;2023-03-01T13:55:06;25.53;;;17.70;;
3769;SDS011;1900;48.890;9.190;2023-03-01T13:57:40;25.63;;;17.27;;
3769;SDS011;1900;48.890;9.190;2023-03-01T14:03:12;21.50;;;15.70;;
3769;SDS011;1900;48.890;9.190;2023-03-01T14:05:40;22.80;;;15.70;;
3769;SDS011;1900;48.890;9.190;2023-03-01T14:08:19;25.93;;;16.10;;
3769;SDS011;1900;48.890;9.190;2023-03-01T14:16:20;21.33;;;16.30;;
3769;SDS011;1900;48.890;9.190;2023-03-01T14:19:02;28.00;;;17.20;;
3769;SDS011;1900;48.890;9.190;2023-03-01T14:21:38;21.30;;;16.63;;
3769;SDS011;1900;48.890;9.190;2023-03-01T14:24:04;26.13;;;17.60;;
3769;SDS011;1900;48.890;9.190;2023-03-01T14:26:30;22.20;;;16.40;;
3769;SDS011;1900;48.890;9.190;2023-03-01T14:28:58;27.83;;;16.50;;
3769;SDS011;1900;48.890;9.190;2023-03-01T14:31:39;22.80;;;15.20;;
3769;SDS011;1900;48.890;9.190;2023-03-01T14:34:16;21.33;;;15.13;;
3769;SDS011;1900;48.890;9.190;2023-03-01T14:36:45;23.20;;;16.90;;
3769;SDS011;1900;48.890;9.190;2023-03-01T14:39:23;26.27;;;16.50;;
3769;SDS011;1900;48.890;9.190;2023-03-01T14:41:51;20.87;;;15.73;;
3769;SDS011;1900;48.890;9.190;2023-03-01T14:44:23;22.57;;;17.07;;
3769;SDS011;1900;48.890;9.190;2023-03-01T14:46:53;22.80;;;17.20;;
3769;SDS011;1900;48.890;9.190;2023-03-01T14:49:28;25.90;;;16.63;;
3769;SDS011;1900;48.890;9.190;2023-03-01T14:54:41;26.07;;;17.30;;
3769;SDS011;1900;48.890;9.190;2023-03-01T14:59:43;23.77;;;16.80;;
3769;SDS011;1900;48.890;9.190;2023-03-01T15:02:13;28.77;;;16.90;;
3769;SDS011;1900;48.890;9.190;2023-03-01T15:04:48;25.30;;;18.27;;
3769;SDS011;1900;48.890;9.190;2023-03-01T15:07:16;26.93;;;17.53;;
3769;SDS011;1900;48.890;9.190;2023-03-01T15:09:43;23.40;;;15.63;;
3769;SDS011;1900;48.890;9.190;2023-03-01T15:14:54;27.47;;;17.90;;
3769;SDS011;1900;48.890;9.190;2023-03-01T15:17:30;22.10;;;16.67;;
3769;SDS011;1900;48.890;9.190;2023-03-01T15:20:06;22.93;;;16.67;;
3769;SDS011;1900;48.890;9.190;2023-03-01T15:22:43;23.77;;;16.13;;
3769;SDS011;1900;48.890;9.190;2023-03-01T15:25:17;25.47;;;16.60;;
3769;SDS011;1900;48.890;9.190;2023-03-01T15:27:45;23.60;;;15.87;;
3769;SDS011;1900;48.890;9.190;2023-03-01T15:30:26;25.57;;;16.37;;
3769;SDS011;1900;48.890;9.190;2023-03-01T15:35:50;24.23;;;15.53;;
3769;SDS011;1900;48.890;9.190;2023-03-01T15:38:35;24.77;;;16.40;;
3769;SDS011;1900;48.890;9.190;2023-03-01T15:41:23;25.60;;;18.57;;
3769;SDS011;1900;48.890;9.190;2023-03-01T15:43:50;22.83;;;15.80;;
3769;SDS011;1900;48.890;9.190;2023-03-01T15:48:52;25.10;;;14.60;;
3769;SDS011;1900;48.890;9.190;2023-03-01T15:51:28;28.80;;;15.90;;
3769;SDS011;1900;48.890;9.190;2023-03-01T15:53:56;24.83;;;15.90;;
3769;SDS011;1900;48.890;9.190;2023-03-01T15:56:25;22.83;;;15.73;;
3769;SDS011;1900;48.890;9.190;2023-03-01T15:58:51;21.43;;;15.67;;
3769;SDS011;1900;48.890;9.190;2023-03-01T16:01:17;25.30;;;16.27;;
3769;SDS011;1900;48.890;9.190;2023-03-01T16:03:43;25.87;;;15.33;;
3769;SDS011;1900;48.890;9.190;2023-03-01T16:06:10;22.47;;;14.33;;
3769;SDS011;1900;48.890;9.190;2023-03-01T16:08:37;24.40;;;14.67;;
3769;SDS011;1900;48.890;9.190;2023-03-01T16:11:04;26.93;;;16.67;;
3769;SDS011;1900;48.890;9.190;2023-03-01T16:13:34;24.90;;;15.07;;
3769;SDS011;1900;48.890;9.190;2023-03-01T16:16:00;24.40;;;15.90;;
3769;SDS011;1900;48.890;9.190;2023-03-01T16:18:25;24.63;;;15.90;;
3769;SDS011;1900;48.890;9.190;2023-03-01T16:20:51;23.73;;;15.80;;
3769;SDS011;1900;48.890;9.190;2023-03-01T16:23:19;22.73;;;15.97;;
3769;SDS011;1900;48.890;9.190;2023-03-01T16:25:44;29.20;;;16.63;;
3769;SDS011;1900;48.890;9.190;2023-03-01T16:28:10;25.63;;;14.83;;
3769;SDS011;1900;48.890;9.190;2023-03-01T16:30:37;26.37;;;16.90;;
3769;SDS011;1900;48.890;9.190;2023-03-01T16:33:04;27.10;;;16.10;;
3769;SDS011;1900;48.890;9.190;2023-03-01T16:35:32;27.70;;;16.63;;
3769;SDS011;1900;48.890;9.190;2023-03-01T16:37:59;23.53;;;15.07;;
3769;SDS011;1900;48.890;9.190;2023-03-01T16:40:26;30.40;;;16.40;;
3769;SDS011;1900;48.890;9.190;2023-03-01T16:42:56;25.13;;;15.40;;
3769;SDS011;1900;48.890;9.190;2023-03-01T16:45:25;26.43;;;14.90;;
3769;SDS011;1900;48.890;9.190;2023-03-01T16:47:52;22.83;;;15.77;;
3769;SDS011;1900;48.890;9.190;2023-03-01T16:50:18;28.37;;;18.63;;
3769;SDS011;1900;48.890;9.190;2023-03-01T16:52:44;28.23;;;17.07;;
3769;SDS011;1900;48.890;9.190;2023-03-01T16:55:10;30.57;;;17.00;;
3769;SDS011;1900;48.890;9.190;2023-03-01T16:57:38;27.23;;;14.70;;
3769;SDS011;1900;48.890;9.190;2023-03-01T17:00:05;25.57;;;15.97;;
3769;SDS011;1900;48.890;9.190;2023-03-01T17:02:34;29.50;;;15.93;;
3769;SDS011;1900;48.890;9.190;2023-03-01T17:05:00;22.40;;;14.80;;
3769;SDS011;1900;48.890;9.190;2023-03-01T17:07:28;28.93;;;18.10;;
3769;SDS011;1900;48.890;9.190;2023-03-01T17:09:58;35.27;;;18.93;;
3769;SDS011;1900;48.890;9.190;2023-03-01T17:12:29;26.93;;;16.20;;
3769;SDS011;1900;48.890;9.190;2023-03-01T17:14:55;26.60;;;15.77;;
3769;SDS011;1900;48.890;9.190;2023-03-01T17:17:20;27.57;;;15.53;;
3769;SDS011;1900;48.890;9.190;2023-03-01T17:19:46;24.40;;;15.87;;
3769;SDS011;1900;48.890;9.190;2023-03-01T17:22:12;23.17;;;15.40;;
3769;SDS011;1900;48.890;9.190;2023-03-01T17:24:38;25.00;;;14.87;;
3769;SDS011;1900;48.890;9.190;2023-03-01T17:27:05;27.13;;;15.30;;